Погода Шапочкинона неделю

Тверская область, Россия

25 - 31 мая
  • 25мая
    Сегодня
    +8°
    +24°
    Ясно и безоблачно
    ВремяПогодаТемператураВлажностьДавлениеВетер, м/сВероятность осадков
    00:00Ясно и безоблачно+11°C50 %753 мм3.2 м/с2 %
    03:00Ясно и безоблачно+9°C59 %753 мм2.8 м/с2 %
    06:00Ясно и безоблачно+9°C64 %753 мм2.9 м/с2 %
    09:00Ясно и безоблачно+18°C49 %753 мм2.7 м/с2 %
    12:00Ясно и безоблачно+23°C37 %752 мм2.7 м/с2 %
    15:00Ясно и безоблачно+24°C37 %752 мм2.8 м/с2 %
    18:00Ясно и безоблачно+25°C41 %750 мм2.8 м/с2 %
    21:00Ясно и безоблачно+18°C64 %750 мм2.1 м/с2 %
  • 26мая
    Воскресенье
    +9°
    +25°
    Практически безоблачно
    ВремяПогодаТемператураВлажностьДавлениеВетер, м/сВероятность осадков
    00:00Ясно и безоблачно+11°C77 %750 мм2.1 м/с2 %
    03:00Ясно и безоблачно+11°C79 %750 мм2.2 м/с2 %
    06:00Ясно и безоблачно+13°C70 %750 мм2.5 м/с2 %
    09:00Небольшая облачность+23°C50 %750 мм2.4 м/с2 %
    12:00Небольшая облачность+25°C37 %750 мм3.4 м/с22 %
    15:00Практически безоблачно+24°C47 %750 мм2.3 м/с48 %
    18:00Небольшая облачность и лёгкий дождик+21°C72 %750 мм2.2 м/с57 %
    21:00Облачно с прояснениями+18°C85 %750 мм1.6 м/с13 %
  • 27мая
    Понедельник
    +10°
    +25°
    Ясно и безоблачно
    ВремяПогодаТемператураВлажностьДавлениеВетер, м/сВероятность осадков
    00:00Ясно и безоблачно+13°C96 %751 мм2.0 м/с1 %
    03:00Ясно и безоблачно+12°C84 %752 мм3.5 м/с2 %
    06:00Ясно и безоблачно+12°C67 %752 мм2.7 м/с2 %
    09:00Практически безоблачно+19°C48 %752 мм2.6 м/с2 %
    12:00Ясно и безоблачно+23°C41 %752 мм2.8 м/с6 %
    15:00Ясно и безоблачно+24°C37 %751 мм2.0 м/с8 %
    18:00Ясно и безоблачно+24°C38 %750 мм1.6 м/с10 %
    21:00Ясно и безоблачно+19°C54 %750 мм3.0 м/с3 %
  • 28мая
    Вторник
    +11°
    +26°
    Практически безоблачно
    ВремяПогодаТемператураВлажностьДавлениеВетер, м/сВероятность осадков
    00:00Ясно и безоблачно+14°C63 %750 мм2.4 м/с2 %
    03:00Ясно и безоблачно+11°C72 %749 мм2.0 м/с2 %
    06:00Ясно и безоблачно+13°C71 %749 мм1.8 м/с2 %
    09:00Ясно и безоблачно+22°C55 %749 мм0.9 м/с2 %
    12:00Небольшая облачность+25°C42 %749 мм0.5 м/с26 %
    15:00Практически безоблачно+25°C40 %748 мм0.9 м/с35 %
    18:00Практически безоблачно+26°C42 %747 мм1.1 м/с38 %
    21:00Практически безоблачно+21°C61 %747 мм2.4 м/с14 %
Мы используем cookies
Соглашаюсь